Kalgoorlie-Boulder, Western Australia

5:42 AM AWST on July 27, 2016 (GMT +0800)
Kalgoorlie-Boulder | | Change Station

Elev 1204 ft 30.78 °S, 121.45 °E | Updated 12 minutes ago

Clear
Clear
37 °F
Feels Like 37 °F
N
0
Wind Variable Wind from North

Today
High -- | Low -- °F
--% Chance of Precip.
Yesterday
High -- | Low -- °F
Precip. -- in
Pressure 30.36 in
Visibility 6.2 miles
Clouds
Dew Point 37 °F
Humidity 100%
Rainfall 0.00 in
Snow Depth Not available.
6:44 AM 5:17 PM
Waning Gibbous, 51% visible
METAR YPKG 262130Z AUTO 00000KT 9999 // NCD 03/03 Q1028
Pressure 30.36 in
Visibility 6.2 miles
Clouds
Dew Point 37 °F
Humidity 100%
Rainfall 0.00 in
Snow Depth Not available.
6:44 AM 5:17 PM
Waning Gibbous, 51% visible
METAR YPKG 262130Z AUTO 00000KT 9999 // NCD 03/03 Q1028

10-Day Weather Forecast

Almanac

Astronomy

Jul. 27, 2016 Rise Set
Actual Time
Civil Twilight
Nautical Twilight
Astronomical Twilight
Moon
Length of Visible Light
Length of Day
Tomorrow will be .
, % of the Moon is Illuminated

Today's Extremes

Country Highs Country Lows

Community

WunderPhotos

Upload Photos

1,927,702 photos uploaded!

WunderBlog® & News

Nearby

Air Quality

  Air Quality AQ Index Pollutant
Not available.

Snow Depth

Station Depth Elevation

Earthquake Activity

City Distance Mag. Time & Date
Minimum magnitude displayed is 2.5.

Coastal Water Temperatures

Place Temperature

Stations

Nearby Weather Stations

Station Location Temp. Windchill Dew Point Humidity Wind Precip. Elev Updated Type